createdAt,value
2018-07-06T01:24:16.049Z,3.20
2018-07-06T01:31:54.510Z,3.80
2018-07-06T01:33:53.873Z,3.70
2018-07-06T01:36:53.977Z,3.80
2018-07-06T01:40:54.326Z,3.20
2018-07-06T01:49:54.531Z,3.80
2018-07-06T01:50:54.686Z,4.10
2018-07-06T03:21:42.714Z,2.20
2018-07-06T03:42:39.084Z,2.00
2018-07-06T03:43:38.919Z,2.20
2018-07-06T03:48:39.306Z,2.20
2018-07-06T04:39:25.980Z,2.90
2018-07-06T04:43:27.643Z,2.60
2018-07-06T04:44:27.572Z,2.40
2018-07-06T04:46:27.124Z,2.60
2018-07-06T04:48:26.509Z,2.90
2018-07-06T04:53:27.292Z,2.50
2018-07-06T04:57:26.612Z,2.60
2018-07-06T04:58:26.649Z,2.70
2018-07-06T04:59:26.682Z,2.30
2018-07-06T05:00:26.719Z,2.40
2018-07-06T05:02:27.619Z,2.20
2018-07-06T05:08:29.459Z,2.80
2018-07-06T05:11:27.543Z,2.20
2018-07-06T05:12:27.156Z,2.50
2018-07-06T05:13:27.193Z,2.50
2018-07-06T05:14:27.229Z,2.40
2018-07-06T05:15:27.265Z,2.80
2018-07-06T05:17:27.564Z,2.60
2018-07-06T05:18:27.379Z,2.90
2018-07-06T05:20:28.785Z,2.80
2018-07-06T05:22:27.522Z,3.00
2018-07-06T05:23:27.558Z,3.00
2018-07-06T05:27:27.703Z,3.80
2018-07-06T05:28:27.741Z,3.80
2018-07-06T05:29:27.779Z,4.10
2018-07-06T05:30:27.817Z,4.10
2018-07-06T05:31:27.850Z,3.70
2018-07-06T05:32:27.887Z,3.50
2018-07-06T05:33:27.923Z,3.50
2018-07-06T05:34:27.960Z,3.40
2018-07-06T05:35:28.013Z,3.50
2018-07-06T05:36:28.034Z,3.90
2018-07-06T05:37:28.091Z,4.30
2018-07-06T05:41:28.216Z,4.60
2018-07-06T05:42:28.254Z,4.50
2018-07-06T05:43:28.289Z,4.40
2018-07-06T05:44:28.346Z,4.50
2018-07-06T05:45:28.383Z,4.40
2018-07-06T05:46:28.402Z,4.10
2018-07-06T05:47:28.457Z,4.50
2018-07-06T05:48:28.474Z,4.50
2018-07-06T05:49:28.734Z,5.50
2018-07-06T05:52:28.640Z,4.50
2018-07-06T05:53:28.658Z,4.00
2018-07-06T05:54:28.694Z,4.40
2018-07-06T05:55:28.731Z,4.50
2018-07-06T05:56:28.768Z,4.00
2018-07-06T05:57:28.806Z,4.90
2018-07-06T05:58:28.842Z,4.50
2018-07-06T05:59:28.880Z,4.40
2018-07-06T06:00:29.339Z,4.20
2018-07-06T06:02:29.007Z,4.50
2018-07-06T06:03:29.028Z,4.60
2018-07-06T06:04:29.391Z,4.50
2018-07-06T06:05:29.526Z,4.40
2018-07-06T06:06:29.157Z,4.40
2018-07-06T06:07:29.177Z,4.70
2018-07-06T06:09:29.270Z,4.40
2018-07-06T06:10:29.287Z,4.70
2018-07-06T06:11:29.324Z,5.40
2018-07-06T06:12:29.360Z,4.50
2018-07-06T06:13:29.402Z,5.20
2018-07-06T06:14:29.636Z,5.20
2018-07-06T06:15:29.490Z,4.40
2018-07-06T06:16:29.528Z,5.00
2018-07-06T06:17:29.545Z,5.00
2018-07-06T06:18:29.647Z,5.30
2018-07-06T06:19:29.619Z,4.30
2018-07-06T06:20:29.676Z,4.00
2018-07-06T06:21:29.696Z,4.40
2018-07-06T06:22:29.729Z,3.90
2018-07-06T06:23:29.767Z,4.00
2018-07-06T06:24:29.805Z,4.00
2018-07-06T06:25:29.845Z,4.60
2018-07-06T06:26:29.904Z,4.10
2018-07-06T06:27:29.933Z,4.00
2018-07-06T06:28:29.953Z,4.50
2018-07-06T06:30:30.246Z,4.80
2018-07-06T06:31:30.064Z,4.70
2018-07-06T06:32:30.104Z,4.50
2018-07-06T06:33:30.233Z,4.40
2018-07-06T06:34:30.192Z,5.60
2018-07-06T06:35:30.212Z,5.00
2018-07-06T06:36:30.249Z,4.70
2018-07-06T06:37:30.286Z,5.60
2018-07-06T06:38:30.322Z,5.40
2018-07-06T06:39:30.413Z,5.00
2018-07-06T06:40:30.397Z,5.00
2018-07-06T06:41:30.437Z,5.40
2018-07-06T06:42:30.472Z,5.30
2018-07-06T06:43:30.540Z,5.50
2018-07-06T06:44:30.547Z,5.20
2018-07-06T06:45:30.584Z,5.10
2018-07-06T06:46:30.655Z,5.10
2018-07-06T06:47:30.657Z,5.70
2018-07-06T06:48:30.717Z,5.40
2018-07-06T06:49:30.734Z,5.50
2018-07-06T06:50:31.297Z,4.80
2018-07-06T06:51:30.808Z,5.20
2018-07-06T06:52:30.862Z,5.50
2018-07-06T06:53:30.883Z,4.90
2018-07-06T06:54:30.918Z,5.00
2018-07-06T06:55:30.975Z,4.70
2018-07-06T06:56:31.011Z,4.80
2018-07-06T06:57:31.034Z,5.40
2018-07-06T06:58:31.067Z,4.70
2018-07-06T06:59:31.107Z,5.70
2018-07-06T07:00:31.145Z,6.20
2018-07-06T07:01:31.181Z,5.80
2018-07-06T07:02:31.223Z,5.90
2018-07-06T07:03:31.256Z,5.80
2018-07-06T07:04:31.293Z,6.00
2018-07-06T07:05:31.332Z,6.10
2018-07-06T07:06:31.369Z,7.00
2018-07-06T07:07:31.490Z,6.90
2018-07-06T07:08:31.442Z,6.60
2018-07-06T07:09:31.480Z,5.80
2018-07-06T07:10:31.517Z,6.60
2018-07-06T07:11:31.554Z,6.50
2018-07-06T07:12:31.614Z,7.30
2018-07-06T07:13:31.632Z,6.70
2018-07-06T07:14:31.689Z,6.40
2018-07-06T07:15:31.704Z,6.60
2018-07-06T07:16:31.758Z,7.20
2018-07-06T07:17:31.780Z,7.00
2018-07-06T07:19:31.872Z,6.10
2018-07-06T07:20:31.892Z,6.40
2018-07-06T07:21:31.945Z,6.20
2018-07-06T07:22:31.983Z,6.20
2018-07-06T07:24:32.044Z,6.70
2018-07-06T07:25:32.080Z,6.90
2018-07-06T07:26:32.117Z,6.00
2018-07-06T07:27:32.155Z,6.40
2018-07-06T07:28:32.192Z,7.10
2018-07-06T07:29:32.229Z,5.70
2018-07-06T07:30:32.266Z,6.20
2018-07-06T07:31:32.304Z,6.00
2018-07-06T07:32:32.343Z,6.50
2018-07-06T07:33:32.379Z,6.80
2018-07-06T07:34:32.417Z,6.80
2018-07-06T07:35:32.454Z,6.20
2018-07-06T07:36:32.491Z,6.70
2018-07-06T07:37:32.529Z,7.40
2018-07-06T07:38:32.565Z,6.90
2018-07-06T07:39:32.605Z,7.10
2018-07-06T07:40:32.641Z,7.10
2018-07-06T07:41:32.679Z,7.30
2018-07-06T07:42:32.715Z,7.70
2018-07-06T07:43:32.752Z,7.80
2018-07-06T07:44:32.791Z,7.70
2018-07-06T07:45:32.827Z,7.30
2018-07-06T07:46:32.922Z,7.10
2018-07-06T07:47:32.902Z,7.20
2018-07-06T07:48:32.944Z,8.10
2018-07-06T07:49:32.999Z,8.70
2018-07-06T07:50:33.034Z,7.10
2018-07-06T07:51:33.051Z,8.10
2018-07-06T07:52:33.090Z,8.10
2018-07-06T07:53:33.127Z,8.20
2018-07-06T07:54:33.203Z,8.20
2018-07-06T07:55:33.201Z,9.30
2018-07-06T07:56:33.237Z,8.50
2018-07-06T07:57:33.276Z,8.60
2018-07-06T07:58:33.328Z,9.00
2018-07-06T07:59:33.568Z,9.20
2018-07-06T08:00:33.515Z,8.70
2018-07-06T08:01:33.477Z,9.20
2018-07-06T08:02:33.483Z,8.50
2018-07-06T08:03:33.518Z,9.40
2018-07-06T08:04:33.556Z,8.90
2018-07-06T08:05:33.576Z,8.50
2018-07-06T08:06:33.660Z,9.10
2018-07-06T08:07:33.650Z,9.10
2018-07-06T08:08:33.686Z,9.10
2018-07-06T08:09:33.724Z,10.10
2018-07-06T08:10:33.759Z,9.20
2018-07-06T08:11:35.446Z,9.60
2018-07-06T08:12:33.835Z,10.00
2018-07-06T08:13:33.874Z,9.20
2018-07-06T08:14:33.962Z,9.40
2018-07-06T08:15:34.150Z,9.60
2018-07-06T08:16:34.054Z,8.90
2018-07-06T08:17:34.045Z,9.50
2018-07-06T08:18:34.060Z,9.70
2018-07-06T08:19:34.099Z,10.20
2018-07-06T08:21:34.175Z,9.80
2018-07-06T08:22:34.208Z,10.80
2018-07-06T08:23:34.267Z,11.10
2018-07-06T08:24:34.286Z,10.30
2018-07-06T08:25:34.354Z,10.30
2018-07-06T08:26:34.361Z,10.50
2018-07-06T08:27:34.397Z,9.90
2018-07-06T08:28:34.436Z,10.10
2018-07-06T08:29:34.472Z,10.10
2018-07-06T08:30:34.510Z,10.00
2018-07-06T08:31:34.609Z,10.60
2018-07-06T08:32:34.586Z,10.90
2018-07-06T08:33:34.624Z,12.70
2018-07-06T08:34:34.660Z,11.20
2018-07-06T08:35:34.698Z,12.70
2018-07-06T08:36:34.736Z,11.30
2018-07-06T08:37:34.772Z,11.90
2018-07-06T08:38:34.810Z,12.70
2018-07-06T08:39:34.880Z,12.70
2018-07-06T08:40:34.886Z,11.80
2018-07-06T08:41:34.923Z,12.30
2018-07-06T08:42:34.960Z,11.30
2018-07-06T08:43:34.999Z,9.90
2018-07-06T08:44:35.037Z,11.50
2018-07-06T08:45:35.074Z,11.10
2018-07-06T08:46:35.111Z,11.40
2018-07-06T08:47:35.149Z,11.90
2018-07-06T08:48:35.186Z,11.30
2018-07-06T08:49:35.224Z,12.50
2018-07-06T08:50:35.260Z,11.90
2018-07-06T08:51:35.299Z,12.80
2018-07-06T08:52:35.336Z,12.90
2018-07-06T08:53:35.375Z,12.40
2018-07-06T08:54:35.412Z,12.50
2018-07-06T08:55:35.449Z,12.20
2018-07-06T08:56:35.488Z,13.10
2018-07-06T08:57:35.527Z,12.50
2018-07-06T08:58:35.618Z,13.00
2018-07-06T08:59:35.601Z,14.40
2018-07-06T09:00:35.639Z,13.50
2018-07-06T09:01:35.677Z,13.50
2018-07-06T09:02:35.714Z,14.60
2018-07-06T09:03:35.753Z,13.60
2018-07-06T09:04:35.925Z,14.60
2018-07-06T09:05:35.849Z,15.20
2018-07-06T09:06:35.885Z,13.50
2018-07-06T09:07:35.917Z,13.20
2018-07-06T09:08:35.949Z,13.20
2018-07-06T09:09:35.982Z,13.30
2018-07-06T09:10:36.045Z,12.70
2018-07-06T09:11:36.058Z,14.00
2018-07-06T09:12:36.097Z,12.30
2018-07-06T09:13:36.151Z,12.20
2018-07-06T09:14:36.173Z,13.40
2018-07-06T09:15:36.232Z,13.50
2018-07-06T09:16:36.267Z,12.70
2018-07-06T09:17:36.815Z,13.50
2018-07-06T09:18:36.325Z,13.00
2018-07-06T09:19:36.492Z,13.20
2018-07-06T09:20:36.403Z,14.30
2018-07-06T09:21:36.441Z,13.00
2018-07-06T09:22:36.500Z,12.50
2018-07-06T09:23:36.537Z,13.50
2018-07-06T09:24:36.576Z,14.50
2018-07-06T09:25:36.977Z,13.40
2018-07-06T09:26:36.633Z,13.50
2018-07-06T09:27:37.198Z,12.80
2018-07-06T09:28:36.731Z,13.70
2018-07-06T09:29:36.752Z,13.40
2018-07-06T09:30:36.787Z,12.60
2018-07-06T09:31:37.047Z,12.40
2018-07-06T09:32:36.882Z,13.70
2018-07-06T09:33:36.923Z,14.00
2018-07-06T09:34:36.964Z,12.60
2018-07-06T09:35:37.608Z,11.70
2018-07-06T09:36:37.037Z,13.20
2018-07-06T09:37:37.075Z,14.00
2018-07-06T09:39:37.151Z,13.30
2018-07-06T09:40:37.192Z,11.20
2018-07-06T09:41:37.538Z,12.00
2018-07-06T09:42:37.268Z,13.50
2018-07-06T09:43:37.615Z,13.20
2018-07-06T09:44:37.329Z,13.10
2018-07-06T09:45:37.368Z,13.10
2018-07-06T09:46:37.424Z,12.10
2018-07-06T09:47:37.464Z,11.70
2018-07-06T09:48:37.502Z,11.60
2018-07-06T09:49:37.521Z,11.40
2018-07-06T09:50:37.562Z,12.20
2018-07-06T09:51:37.598Z,11.50
2018-07-06T09:52:37.637Z,11.90
2018-07-06T09:53:37.676Z,13.00
2018-07-06T09:54:37.715Z,11.60
2018-07-06T09:55:37.755Z,11.50
2018-07-06T09:56:37.794Z,12.50
2018-07-06T09:57:37.833Z,12.70
2018-07-06T09:58:37.872Z,12.80
2018-07-06T09:59:37.914Z,12.70
2018-07-06T10:01:37.993Z,13.00
2018-07-06T10:02:38.253Z,14.50
2018-07-06T10:03:38.069Z,13.70
2018-07-06T10:04:38.112Z,12.20
2018-07-06T10:05:38.217Z,13.00
2018-07-06T10:06:38.191Z,13.80
2018-07-06T10:07:38.249Z,13.20
2018-07-06T10:08:38.294Z,12.50
2018-07-06T10:09:38.369Z,12.40
2018-07-06T10:10:38.354Z,12.60
2018-07-06T10:11:38.395Z,12.30
2018-07-06T10:12:38.509Z,11.80
2018-07-06T10:13:38.477Z,11.10
2018-07-06T10:14:38.537Z,11.60
2018-07-06T10:15:38.561Z,11.40
2018-07-06T10:16:38.602Z,12.40
2018-07-06T10:17:38.643Z,11.90
2018-07-06T10:18:38.685Z,12.00
2018-07-06T10:19:38.804Z,11.90
2018-07-06T10:20:38.768Z,11.70
2018-07-06T10:21:38.813Z,11.30
2018-07-06T10:22:38.853Z,10.10
2018-07-06T10:23:38.894Z,11.10
2018-07-06T10:24:38.956Z,11.30
2018-07-06T10:25:39.031Z,10.20
2018-07-06T10:26:39.023Z,11.10
2018-07-06T10:27:39.069Z,12.20
2018-07-06T10:28:39.108Z,10.80
2018-07-06T10:29:39.152Z,11.50
2018-07-06T10:30:39.192Z,11.40
2018-07-06T10:31:39.235Z,11.50
2018-07-06T10:32:39.279Z,10.80
2018-07-06T10:33:39.387Z,11.20
2018-07-06T10:34:39.367Z,10.60
2018-07-06T10:35:39.408Z,12.40
2018-07-06T10:36:39.453Z,11.10
2018-07-06T10:37:39.495Z,10.30
2018-07-06T10:38:39.539Z,11.00
2018-07-06T10:39:39.701Z,11.70
2018-07-06T10:40:39.626Z,11.70
2018-07-06T10:41:39.670Z,11.30
2018-07-06T10:42:39.716Z,11.70
2018-07-06T10:43:39.758Z,12.50
2018-07-06T10:44:39.801Z,10.70
2018-07-06T10:45:39.845Z,11.20
2018-07-06T10:46:39.910Z,10.80
2018-07-06T10:47:39.933Z,11.70
2018-07-06T10:48:42.600Z,12.00
2018-07-06T10:49:40.022Z,11.70
2018-07-06T10:50:40.065Z,11.00
2018-07-06T10:51:40.110Z,10.80
2018-07-06T10:52:40.157Z,11.40
2018-07-06T10:53:40.199Z,11.30
2018-07-06T10:54:40.243Z,11.90
2018-07-06T10:55:40.288Z,11.80
2018-07-06T10:56:40.332Z,11.80
2018-07-06T10:57:40.378Z,11.20
2018-07-06T10:58:40.624Z,10.50
2018-07-06T10:59:40.468Z,11.00
2018-07-06T11:00:40.513Z,10.80
2018-07-06T11:01:40.560Z,10.20
2018-07-06T11:02:40.606Z,10.40
2018-07-06T11:03:40.653Z,10.30
2018-07-06T11:04:40.699Z,10.90
2018-07-06T11:08:06.665Z,11.70
2018-07-06T11:09:06.715Z,12.00
2018-07-06T11:11:09.374Z,11.00
2018-07-06T11:12:09.622Z,11.70
2018-07-06T11:13:09.468Z,10.70
2018-07-06T11:14:09.518Z,11.50
2018-07-06T11:15:09.566Z,10.90
2018-07-06T11:16:09.614Z,11.80
2018-07-06T11:17:09.662Z,10.10
2018-07-06T11:18:09.712Z,10.30
2018-07-06T11:19:09.775Z,12.30
2018-07-06T11:20:09.829Z,11.60
2018-07-06T11:21:09.859Z,10.40
2018-07-06T11:22:09.909Z,11.70
2018-07-06T11:23:09.959Z,11.00
2018-07-06T11:24:10.009Z,10.80
2018-07-06T11:25:10.087Z,11.60
2018-07-06T11:26:10.110Z,11.00
2018-07-06T11:27:10.160Z,10.60
2018-07-06T11:28:10.213Z,10.90
2018-07-06T11:31:10.417Z,9.00
2018-07-06T11:32:10.478Z,9.20
2018-07-06T11:33:10.464Z,9.60
2018-07-06T11:34:10.514Z,9.90
2018-07-06T11:35:10.566Z,9.60
2018-07-06T11:36:10.617Z,9.50
2018-07-06T11:37:10.669Z,9.50
2018-07-06T11:38:10.846Z,9.70
2018-07-06T11:39:10.771Z,10.80
2018-07-06T11:40:10.821Z,10.50
2018-07-06T11:41:10.874Z,9.80
2018-07-06T11:42:10.925Z,11.30
2018-07-06T11:43:10.977Z,15.20
2018-07-06T11:44:11.025Z,16.20
2018-07-06T11:45:11.106Z,10.80
2018-07-06T11:46:11.126Z,11.50
2018-07-06T11:47:11.179Z,11.70
2018-07-06T11:48:11.229Z,12.60
2018-07-06T11:49:11.280Z,12.20
2018-07-06T11:50:11.353Z,11.00
2018-07-06T11:51:11.402Z,10.60
2018-07-06T11:52:11.450Z,11.30
2018-07-06T11:53:11.485Z,11.00
2018-07-06T11:54:11.554Z,10.10
2018-07-06T11:56:11.642Z,9.40
2018-07-06T11:57:11.694Z,10.00
2018-07-06T11:58:11.755Z,9.80
2018-07-06T11:59:11.801Z,9.60
2018-07-06T12:00:11.857Z,8.80
2018-07-06T12:01:11.909Z,8.20
2018-07-06T12:02:11.961Z,9.20
2018-07-06T12:03:12.014Z,8.00
2018-07-06T12:04:12.219Z,8.50
2018-07-06T12:05:12.120Z,7.70
2018-07-06T12:06:12.179Z,8.90
2018-07-06T12:07:12.245Z,9.00
2018-07-06T12:10:12.402Z,9.60
2018-07-06T12:15:12.642Z,7.90
2018-07-06T12:16:12.691Z,8.50
2018-07-06T12:17:12.766Z,7.30
2018-07-06T12:18:12.826Z,7.20
2018-07-06T12:19:12.848Z,7.80
2018-07-06T12:20:12.900Z,7.50
2018-07-06T12:21:13.144Z,8.20
2018-07-06T12:22:13.008Z,8.90
2018-07-06T12:23:13.061Z,8.00
2018-07-06T12:24:13.113Z,8.90
2018-07-06T12:25:13.166Z,8.30
2018-07-06T12:26:13.241Z,7.80
2018-07-06T12:27:13.273Z,7.80
2018-07-06T12:28:13.328Z,7.60
2018-07-06T12:29:13.387Z,8.30
2018-07-06T12:30:13.434Z,7.80
2018-07-06T12:31:13.483Z,7.90
2018-07-06T12:32:13.538Z,7.30
2018-07-06T12:33:13.592Z,7.20
2018-07-06T12:34:13.643Z,6.60
2018-07-06T12:35:13.697Z,8.70
2018-07-06T12:36:13.748Z,7.90
2018-07-06T12:37:15.218Z,7.80
2018-07-06T12:38:13.854Z,7.50
2018-07-06T12:39:13.909Z,7.10
2018-07-06T12:40:13.974Z,7.40
2018-07-06T12:41:14.072Z,6.30
2018-07-06T12:42:14.101Z,6.10
2018-07-06T12:43:14.121Z,6.30
2018-07-06T12:44:14.170Z,6.60
2018-07-06T12:45:14.223Z,7.10
2018-07-06T12:46:14.279Z,6.50
2018-07-06T12:47:14.397Z,5.50
2018-07-06T12:48:14.380Z,6.30
2018-07-06T12:49:14.437Z,5.60
2018-07-06T12:50:14.487Z,6.00
2018-07-06T12:52:14.593Z,6.80
2018-07-06T12:53:14.646Z,7.20
2018-07-06T12:54:14.699Z,6.00
2018-07-06T12:55:14.752Z,5.20
2018-07-06T12:56:14.803Z,6.30
2018-07-06T12:57:14.855Z,7.50
2018-07-06T12:58:14.949Z,6.90
2018-07-06T12:59:15.180Z,7.30
2018-07-06T13:01:15.075Z,7.60
2018-07-06T13:03:16.305Z,7.80
2018-07-06T13:04:15.215Z,7.00
2018-07-06T13:05:15.264Z,8.00
2018-07-06T13:06:15.314Z,7.30
2018-07-06T13:07:15.368Z,7.70
2018-07-06T13:08:15.414Z,7.50
2018-07-06T13:09:15.463Z,6.50
2018-07-06T13:10:15.515Z,5.50
2018-07-06T13:11:15.564Z,5.90
2018-07-06T13:12:15.613Z,5.90
2018-07-06T13:13:15.664Z,6.00
2018-07-06T13:14:15.715Z,5.80
2018-07-06T13:15:15.769Z,5.60
2018-07-06T13:16:15.833Z,6.00
2018-07-06T13:17:15.870Z,5.70
2018-07-06T13:18:15.917Z,5.90
2018-07-06T13:19:15.969Z,6.00
2018-07-06T13:20:16.020Z,5.60
2018-07-06T13:21:16.073Z,5.30
2018-07-06T13:22:16.123Z,5.20
2018-07-06T13:23:16.174Z,4.60
2018-07-06T13:24:16.223Z,4.90
2018-07-06T13:25:16.603Z,4.80
2018-07-06T13:26:16.342Z,4.40
2018-07-06T13:27:16.396Z,4.60
2018-07-06T13:28:16.428Z,4.70
2018-07-06T13:29:16.480Z,5.30
2018-07-06T13:30:16.529Z,5.00
2018-07-06T13:31:16.578Z,4.60
2018-07-06T13:32:16.832Z,5.20
2018-07-06T13:33:16.679Z,4.70
2018-07-06T13:34:16.730Z,5.60
2018-07-06T13:35:20.212Z,5.40
2018-07-06T13:36:16.858Z,5.40
2018-07-06T13:37:16.880Z,4.90
2018-07-06T13:38:16.930Z,5.70
2018-07-06T13:39:17.016Z,4.30
2018-07-06T13:40:17.029Z,5.10
2018-07-06T13:41:19.700Z,5.60
2018-07-06T13:42:17.128Z,5.10
2018-07-06T13:43:17.178Z,5.40
2018-07-06T13:44:17.231Z,5.40
2018-07-06T13:45:17.278Z,5.00
2018-07-06T13:46:17.328Z,5.20
2018-07-06T13:47:17.378Z,4.90
2018-07-06T13:48:17.428Z,4.20
2018-07-06T13:49:17.479Z,4.10
2018-07-06T13:50:17.529Z,4.50
2018-07-06T13:51:17.581Z,5.30
2018-07-06T13:52:17.632Z,4.20
2018-07-06T13:53:17.683Z,4.30
2018-07-06T13:54:17.734Z,4.50
2018-07-06T13:55:17.786Z,4.20
2018-07-06T13:56:17.835Z,5.20
2018-07-06T13:57:17.887Z,5.10
2018-07-06T13:58:17.937Z,4.30
2018-07-06T13:59:18.202Z,4.10
2018-07-06T14:00:18.039Z,4.10
2018-07-06T14:02:18.160Z,3.70
2018-07-06T14:03:18.188Z,4.30
2018-07-06T14:04:18.235Z,4.30
2018-07-06T14:05:18.285Z,4.90
2018-07-06T14:06:18.334Z,5.30
2018-07-06T14:07:18.383Z,5.70
2018-07-06T14:08:18.429Z,5.10
2018-07-06T14:09:18.479Z,5.10
2018-07-06T14:10:18.525Z,5.60
2018-07-06T14:11:18.572Z,5.10
2018-07-06T14:12:18.637Z,5.60
2018-07-06T14:13:18.665Z,5.00
2018-07-06T14:14:18.717Z,5.40
2018-07-06T14:15:18.760Z,5.00
2018-07-06T14:16:18.804Z,5.70
2018-07-06T14:17:18.852Z,5.20
2018-07-06T14:18:18.896Z,5.00
2018-07-06T14:19:18.942Z,4.80
2018-07-06T14:20:18.987Z,5.10
2018-07-06T14:21:19.030Z,5.40
2018-07-06T14:22:19.075Z,5.60
2018-07-06T14:23:19.140Z,5.30
2018-07-06T14:24:19.163Z,5.20
2018-07-06T14:25:19.434Z,6.10
2018-07-06T14:26:19.274Z,6.10
2018-07-06T14:27:19.319Z,7.50
2018-07-06T14:28:19.353Z,6.40
2018-07-06T14:29:19.407Z,7.10
2018-07-06T14:30:19.475Z,6.10
2018-07-06T14:31:19.494Z,6.20
2018-07-06T14:32:19.535Z,6.70
2018-07-06T14:33:19.568Z,5.30
2018-07-06T14:34:19.615Z,6.60
2018-07-06T14:35:19.661Z,5.40
2018-07-06T14:36:19.701Z,5.80
2018-07-06T14:37:19.746Z,5.70
2018-07-06T14:38:19.786Z,4.90
2018-07-06T14:39:19.828Z,5.30
2018-07-06T14:40:19.884Z,6.00
2018-07-06T14:41:19.906Z,5.20
2018-07-06T14:42:19.979Z,5.70
2018-07-06T14:44:20.034Z,5.80
2018-07-06T14:45:20.057Z,6.30
2018-07-06T14:48:20.181Z,6.40
2018-07-06T14:50:20.487Z,6.90
2018-07-06T14:51:20.304Z,6.40
2018-07-06T14:52:20.343Z,6.30
2018-07-06T14:53:21.114Z,5.50
2018-07-06T14:54:20.426Z,6.60
2018-07-06T14:55:20.468Z,7.70
2018-07-06T14:56:20.507Z,7.00
2018-07-06T14:57:20.547Z,6.80
2018-07-06T14:58:20.589Z,7.00
2018-07-06T14:59:20.630Z,6.70
2018-07-06T15:00:20.668Z,6.50
2018-07-06T15:01:20.726Z,7.00
2018-07-06T15:02:20.750Z,6.80
2018-07-06T15:03:20.792Z,7.20
2018-07-06T15:04:20.830Z,6.90
2018-07-06T15:05:20.871Z,7.30
2018-07-06T15:06:20.911Z,6.80
2018-07-06T15:07:20.951Z,6.80
2018-07-06T15:08:20.990Z,7.40
2018-07-06T15:09:21.044Z,8.30
2018-07-06T15:10:21.075Z,6.60
2018-07-06T15:11:21.119Z,7.20
2018-07-06T15:12:21.217Z,6.50
2018-07-06T15:15:47.093Z,6.50
2018-07-06T15:16:47.135Z,6.50
2018-07-06T15:17:47.201Z,6.00
2018-07-06T15:18:47.214Z,5.90
2018-07-06T15:19:47.256Z,6.60
2018-07-06T15:20:47.300Z,6.60
2018-07-06T15:21:47.342Z,5.40
2018-07-06T15:22:47.382Z,5.60
2018-07-06T15:23:47.419Z,5.40
2018-07-06T15:24:47.490Z,6.30
2018-07-06T15:25:47.504Z,6.00
2018-07-06T15:26:47.547Z,5.50
2018-07-06T15:27:47.589Z,5.90
2018-07-06T15:28:47.632Z,5.40
2018-07-06T15:29:50.299Z,5.60
2018-07-06T15:30:47.721Z,6.60
2018-07-06T15:31:47.766Z,7.90
2018-07-06T15:32:47.809Z,5.60
2018-07-06T15:33:47.854Z,5.60
2018-07-06T15:34:47.899Z,5.70
2018-07-06T15:35:47.944Z,5.30
2018-07-06T15:36:47.990Z,4.70
2018-07-06T15:37:48.036Z,4.80
2018-07-06T15:38:48.084Z,4.90
2018-07-06T15:39:48.330Z,5.20
2018-07-06T15:40:48.181Z,4.70
2018-07-06T15:41:48.222Z,4.30
2018-07-06T15:42:48.267Z,4.40
2018-07-06T15:43:48.314Z,5.10
2018-07-06T15:44:48.361Z,3.90
2018-07-06T15:45:48.410Z,4.30
2018-07-06T15:46:48.456Z,3.80
2018-07-06T15:47:48.502Z,4.20
2018-07-06T15:48:48.551Z,4.10
2018-07-06T15:49:48.600Z,4.10
2018-07-06T15:50:52.079Z,3.90
2018-07-06T15:51:48.693Z,4.30
2018-07-06T15:56:09.809Z,4.30
2018-07-06T15:57:09.905Z,4.20
2018-07-06T15:58:09.903Z,4.30
2018-07-06T15:59:09.952Z,3.90
2018-07-06T16:00:10.000Z,3.50
2018-07-06T16:01:10.048Z,3.90
2018-07-06T16:02:10.097Z,4.20
2018-07-06T16:03:10.143Z,4.30
2018-07-06T16:04:10.191Z,4.40
2018-07-06T16:05:10.240Z,3.30
2018-07-06T16:06:10.290Z,3.50
2018-07-06T16:07:10.336Z,3.40
2018-07-06T16:08:10.383Z,3.60
2018-07-06T16:09:10.430Z,3.30
2018-07-06T16:10:10.481Z,3.90
2018-07-06T16:11:10.528Z,4.00
2018-07-06T16:12:10.575Z,4.00
2018-07-06T16:13:10.622Z,3.60
2018-07-06T16:14:10.726Z,4.30
2018-07-06T16:15:10.717Z,3.70
2018-07-06T16:16:10.787Z,4.10
2018-07-06T16:17:10.809Z,3.90
2018-07-06T16:18:10.854Z,3.90
2018-07-06T16:19:10.902Z,3.60
2018-07-06T16:20:10.948Z,4.00
2018-07-06T16:21:10.993Z,3.90
2018-07-06T16:22:11.039Z,3.60
2018-07-06T16:23:11.089Z,3.90
2018-07-06T16:24:11.131Z,3.80
2018-07-06T16:25:11.181Z,3.90
2018-07-06T16:26:11.225Z,4.30
2018-07-06T16:27:11.270Z,3.70
2018-07-06T16:28:11.316Z,3.50
2018-07-06T16:29:11.364Z,3.70
2018-07-06T16:30:11.409Z,4.20
2018-07-06T16:31:11.456Z,3.60
2018-07-06T16:32:11.504Z,4.10
2018-07-06T16:33:11.551Z,3.80
2018-07-06T16:34:11.597Z,3.70
2018-07-06T16:35:11.642Z,3.90
2018-07-06T16:36:11.724Z,3.80
2018-07-06T16:37:11.739Z,4.00
2018-07-06T16:38:11.783Z,4.00
2018-07-06T16:39:11.831Z,4.10
2018-07-06T16:40:11.877Z,4.00
2018-07-06T16:41:11.925Z,4.00
2018-07-06T16:42:11.972Z,3.80
2018-07-06T16:43:12.022Z,4.30
2018-07-06T16:44:12.068Z,3.50
2018-07-06T16:45:12.115Z,3.60
2018-07-06T16:46:12.161Z,3.50
2018-07-06T16:47:12.209Z,3.60
2018-07-06T16:48:12.257Z,3.70
2018-07-06T16:49:12.304Z,3.50
2018-07-06T16:50:12.351Z,3.70
2018-07-06T16:51:12.398Z,4.30
2018-07-06T16:52:12.451Z,4.20
2018-07-06T16:53:12.493Z,4.10
2018-07-06T16:54:12.541Z,4.30
2018-07-06T16:55:12.589Z,3.80
2018-07-06T16:56:12.637Z,3.80
2018-07-06T16:57:12.688Z,4.20
2018-07-06T16:58:12.729Z,4.10
2018-07-06T16:59:12.778Z,4.30
2018-07-06T17:00:12.826Z,4.20
2018-07-06T17:01:12.878Z,3.50
2018-07-06T17:02:12.919Z,3.90
2018-07-06T17:03:12.967Z,3.80
2018-07-06T17:04:13.013Z,4.00
2018-07-06T17:05:13.062Z,4.10
2018-07-06T17:06:13.110Z,3.70
2018-07-06T17:07:13.159Z,4.10
2018-07-06T17:08:13.201Z,3.60
2018-07-06T17:09:13.251Z,4.10
2018-07-06T17:10:13.297Z,4.10
2018-07-06T17:11:13.342Z,4.30
2018-07-06T17:12:16.013Z,4.90
2018-07-06T17:13:13.438Z,4.60
2018-07-06T17:14:13.485Z,4.60
2018-07-06T17:15:13.529Z,4.40
2018-07-06T17:16:13.577Z,4.20
2018-07-06T17:17:13.623Z,4.10
2018-07-06T17:18:13.670Z,4.10
2018-07-06T17:19:13.717Z,4.20
2018-07-06T17:20:13.765Z,3.90
2018-07-06T17:21:13.809Z,4.50
2018-07-06T17:22:13.858Z,4.50
2018-07-06T17:23:13.903Z,4.30
2018-07-06T17:24:13.950Z,4.40
2018-07-06T17:25:13.996Z,4.00
2018-07-06T17:26:14.042Z,4.30
2018-07-06T17:27:14.088Z,3.80
2018-07-06T17:28:14.135Z,4.10
2018-07-06T17:29:14.180Z,4.40
2018-07-06T17:30:14.226Z,4.60
2018-07-06T17:31:14.271Z,4.20
2018-07-06T17:32:14.320Z,4.30
2018-07-06T17:33:14.363Z,4.60
2018-07-06T17:34:14.423Z,4.60
2018-07-06T17:35:14.507Z,4.40
2018-07-06T17:36:14.498Z,4.70
2018-07-06T17:37:14.552Z,4.60
2018-07-06T17:38:14.607Z,4.40
2018-07-06T17:39:14.633Z,4.50
2018-07-06T17:40:15.012Z,4.70
2018-07-06T17:41:18.017Z,4.60
2018-07-06T17:42:14.765Z,4.80
2018-07-06T17:43:14.827Z,4.40
2018-07-06T17:44:14.863Z,4.30
2018-07-06T17:45:14.895Z,4.80
2018-07-06T17:46:14.939Z,4.70
2018-07-06T17:47:14.982Z,4.30
2018-07-06T17:48:15.027Z,4.40
2018-07-06T17:49:15.068Z,4.30
2018-07-06T17:50:15.111Z,4.70
2018-07-06T17:51:15.152Z,4.40
2018-07-06T17:52:15.260Z,4.90
2018-07-06T17:53:57.793Z,4.70
2018-07-06T17:54:57.837Z,5.00
2018-07-06T17:55:57.877Z,4.30
2018-07-06T17:56:58.728Z,4.60
2018-07-06T17:58:40.518Z,5.60
2018-07-06T17:59:40.558Z,5.70
2018-07-06T18:00:40.599Z,6.10
2018-07-06T18:01:40.642Z,5.40
2018-07-06T18:02:40.683Z,5.30
2018-07-06T18:03:40.723Z,6.30
2018-07-06T18:04:40.764Z,6.10
2018-07-06T18:05:40.804Z,5.80
2018-07-06T18:06:40.846Z,6.50
2018-07-06T18:07:40.888Z,5.90
2018-07-06T18:08:40.929Z,6.00
2018-07-06T18:09:40.969Z,6.50
2018-07-06T18:10:41.028Z,7.00
2018-07-06T18:11:41.050Z,6.60
2018-07-06T18:12:41.092Z,6.00
2018-07-06T18:13:41.132Z,6.20
2018-07-06T18:14:41.172Z,6.30
2018-07-06T18:15:41.214Z,6.60
2018-07-06T18:16:41.254Z,6.50
2018-07-06T18:17:41.293Z,6.70
2018-07-06T18:18:41.557Z,6.50
2018-07-06T18:19:41.393Z,7.10
2018-07-06T18:20:41.414Z,6.80
2018-07-06T18:21:41.456Z,7.40
2018-07-06T18:22:41.493Z,7.20
2018-07-06T18:23:41.534Z,6.80
2018-07-06T18:24:41.573Z,6.60
2018-07-06T18:25:41.612Z,7.20
2018-07-06T18:28:41.732Z,7.40
2018-07-06T18:29:41.773Z,7.50
2018-07-06T18:30:41.811Z,7.30
2018-07-06T18:31:42.070Z,7.40
2018-07-06T18:32:41.890Z,8.20
2018-07-06T18:33:41.928Z,9.40
2018-07-06T18:34:41.967Z,7.90
2018-07-06T18:35:42.816Z,7.50
2018-07-06T18:36:42.047Z,5.60
2018-07-06T18:37:42.084Z,5.30
2018-07-06T18:38:42.124Z,6.00
2018-07-06T18:39:42.162Z,6.80
2018-07-06T18:40:42.202Z,5.40
2018-07-06T18:41:42.244Z,5.50
2018-07-06T18:42:42.279Z,5.40
2018-07-06T18:44:42.356Z,6.00
2018-07-06T18:45:42.393Z,7.50
2018-07-06T18:46:42.432Z,7.00
2018-07-06T18:47:42.593Z,7.60
2018-07-06T18:48:42.507Z,8.20
2018-07-06T18:49:42.544Z,8.30